sensor_id;sensor_type;location;lat;lon;timestamp;P1;durP1;ratioP1;P2;durP2;ratioP2
71856;SDS011;63344;46.980;28.882;2023-05-10T00:01:19;9.13;;;5.00;;
71856;SDS011;63344;46.980;28.882;2023-05-10T00:03:47;9.23;;;5.45;;
71856;SDS011;63344;46.980;28.882;2023-05-10T00:06:14;8.95;;;4.60;;
71856;SDS011;63344;46.980;28.882;2023-05-10T00:08:41;12.50;;;5.35;;
71856;SDS011;63344;46.980;28.882;2023-05-10T00:11:12;11.48;;;5.50;;
71856;SDS011;63344;46.980;28.882;2023-05-10T00:13:42;10.48;;;5.32;;
71856;SDS011;63344;46.980;28.882;2023-05-10T00:16:09;8.32;;;5.10;;
71856;SDS011;63344;46.980;28.882;2023-05-10T00:18:36;9.25;;;5.43;;
71856;SDS011;63344;46.980;28.882;2023-05-10T00:21:04;9.75;;;5.05;;
71856;SDS011;63344;46.980;28.882;2023-05-10T00:23:31;10.13;;;5.05;;
71856;SDS011;63344;46.980;28.882;2023-05-10T00:25:58;9.07;;;5.20;;
71856;SDS011;63344;46.980;28.882;2023-05-10T00:28:27;9.73;;;5.00;;
71856;SDS011;63344;46.980;28.882;2023-05-10T00:30:55;9.25;;;5.65;;
71856;SDS011;63344;46.980;28.882;2023-05-10T00:33:23;8.52;;;5.03;;
71856;SDS011;63344;46.980;28.882;2023-05-10T00:35:50;11.07;;;5.22;;
71856;SDS011;63344;46.980;28.882;2023-05-10T00:38:17;11.75;;;5.32;;
71856;SDS011;63344;46.980;28.882;2023-05-10T00:40:44;8.63;;;5.18;;
71856;SDS011;63344;46.980;28.882;2023-05-10T00:43:12;7.80;;;4.60;;
71856;SDS011;63344;46.980;28.882;2023-05-10T00:45:39;6.78;;;4.95;;
71856;SDS011;63344;46.980;28.882;2023-05-10T00:48:07;7.63;;;5.47;;
71856;SDS011;63344;46.980;28.882;2023-05-10T00:50:35;11.00;;;5.60;;
71856;SDS011;63344;46.980;28.882;2023-05-10T00:53:02;11.23;;;5.57;;
71856;SDS011;63344;46.980;28.882;2023-05-10T00:55:30;11.07;;;6.20;;
71856;SDS011;63344;46.980;28.882;2023-05-10T00:57:58;8.63;;;5.63;;
71856;SDS011;63344;46.980;28.882;2023-05-10T01:00:25;9.30;;;6.00;;
71856;SDS011;63344;46.980;28.882;2023-05-10T01:02:55;8.38;;;5.53;;
71856;SDS011;63344;46.980;28.882;2023-05-10T01:05:22;10.43;;;5.57;;
71856;SDS011;63344;46.980;28.882;2023-05-10T01:07:50;12.63;;;5.18;;
71856;SDS011;63344;46.980;28.882;2023-05-10T01:10:17;9.43;;;5.68;;
71856;SDS011;63344;46.980;28.882;2023-05-10T01:12:46;11.20;;;5.38;;
71856;SDS011;63344;46.980;28.882;2023-05-10T01:15:14;9.77;;;5.45;;
71856;SDS011;63344;46.980;28.882;2023-05-10T01:17:44;10.75;;;5.57;;
71856;SDS011;63344;46.980;28.882;2023-05-10T01:20:13;15.18;;;5.35;;
71856;SDS011;63344;46.980;28.882;2023-05-10T01:34:07;13.73;;;5.47;;
71856;SDS011;63344;46.980;28.882;2023-05-10T01:36:40;6.72;;;4.50;;
71856;SDS011;63344;46.980;28.882;2023-05-10T01:39:28;10.18;;;5.90;;
71856;SDS011;63344;46.980;28.882;2023-05-10T01:42:11;15.85;;;6.70;;
71856;SDS011;63344;46.980;28.882;2023-05-10T01:47:20;12.00;;;5.60;;
71856;SDS011;63344;46.980;28.882;2023-05-10T01:50:11;9.77;;;5.50;;
71856;SDS011;63344;46.980;28.882;2023-05-10T01:52:42;8.50;;;5.20;;
71856;SDS011;63344;46.980;28.882;2023-05-10T01:55:15;10.60;;;5.93;;
71856;SDS011;63344;46.980;28.882;2023-05-10T01:57:46;9.98;;;4.85;;
71856;SDS011;63344;46.980;28.882;2023-05-10T02:00:18;11.35;;;4.88;;
71856;SDS011;63344;46.980;28.882;2023-05-10T02:02:47;10.05;;;5.25;;
71856;SDS011;63344;46.980;28.882;2023-05-10T02:05:16;8.13;;;5.40;;
71856;SDS011;63344;46.980;28.882;2023-05-10T02:07:45;7.10;;;4.95;;
71856;SDS011;63344;46.980;28.882;2023-05-10T02:10:14;10.00;;;4.95;;
71856;SDS011;63344;46.980;28.882;2023-05-10T02:12:43;9.60;;;5.15;;
71856;SDS011;63344;46.980;28.882;2023-05-10T02:15:15;9.30;;;5.22;;
71856;SDS011;63344;46.980;28.882;2023-05-10T02:17:47;7.43;;;5.15;;
71856;SDS011;63344;46.980;28.882;2023-05-10T02:20:15;10.93;;;5.72;;
71856;SDS011;63344;46.980;28.882;2023-05-10T02:22:45;13.00;;;5.53;;
71856;SDS011;63344;46.980;28.882;2023-05-10T02:25:16;12.40;;;5.65;;
71856;SDS011;63344;46.980;28.882;2023-05-10T02:27:46;9.43;;;5.65;;
71856;SDS011;63344;46.980;28.882;2023-05-10T02:30:15;7.55;;;5.00;;
71856;SDS011;63344;46.980;28.882;2023-05-10T02:32:44;12.75;;;5.03;;
71856;SDS011;63344;46.980;28.882;2023-05-10T02:35:13;12.82;;;5.93;;
71856;SDS011;63344;46.980;28.882;2023-05-10T02:37:41;10.60;;;5.47;;
71856;SDS011;63344;46.980;28.882;2023-05-10T02:40:11;11.18;;;5.50;;
71856;SDS011;63344;46.980;28.882;2023-05-10T02:42:41;7.90;;;4.88;;
71856;SDS011;63344;46.980;28.882;2023-05-10T02:45:12;10.20;;;5.90;;
71856;SDS011;63344;46.980;28.882;2023-05-10T02:47:41;14.68;;;6.85;;
71856;SDS011;63344;46.980;28.882;2023-05-10T02:50:09;17.00;;;7.10;;
71856;SDS011;63344;46.980;28.882;2023-05-10T02:52:38;21.70;;;6.65;;
71856;SDS011;63344;46.980;28.882;2023-05-10T02:55:09;17.23;;;5.35;;
71856;SDS011;63344;46.980;28.882;2023-05-10T02:57:41;11.80;;;5.88;;
71856;SDS011;63344;46.980;28.882;2023-05-10T03:00:13;13.55;;;6.22;;
71856;SDS011;63344;46.980;28.882;2023-05-10T03:02:41;13.40;;;7.32;;
71856;SDS011;63344;46.980;28.882;2023-05-10T03:05:09;10.77;;;6.65;;
71856;SDS011;63344;46.980;28.882;2023-05-10T03:07:36;15.73;;;8.48;;
71856;SDS011;63344;46.980;28.882;2023-05-10T03:10:03;14.13;;;7.75;;
71856;SDS011;63344;46.980;28.882;2023-05-10T03:12:35;11.32;;;6.47;;
71856;SDS011;63344;46.980;28.882;2023-05-10T03:17:42;11.73;;;5.80;;
71856;SDS011;63344;46.980;28.882;2023-05-10T03:20:16;12.55;;;6.53;;
71856;SDS011;63344;46.980;28.882;2023-05-10T03:22:52;15.13;;;6.55;;
71856;SDS011;63344;46.980;28.882;2023-05-10T03:25:23;10.00;;;5.88;;
71856;SDS011;63344;46.980;28.882;2023-05-10T03:27:51;14.57;;;5.60;;
71856;SDS011;63344;46.980;28.882;2023-05-10T03:30:20;14.90;;;6.50;;
71856;SDS011;63344;46.980;28.882;2023-05-10T03:32:48;13.80;;;7.10;;
71856;SDS011;63344;46.980;28.882;2023-05-10T03:35:15;16.60;;;6.45;;
71856;SDS011;63344;46.980;28.882;2023-05-10T03:37:42;14.05;;;6.75;;
71856;SDS011;63344;46.980;28.882;2023-05-10T03:40:10;12.13;;;6.88;;
71856;SDS011;63344;46.980;28.882;2023-05-10T03:42:37;11.05;;;6.22;;
71856;SDS011;63344;46.980;28.882;2023-05-10T03:45:07;17.15;;;7.05;;
71856;SDS011;63344;46.980;28.882;2023-05-10T03:47:34;18.52;;;7.20;;
71856;SDS011;63344;46.980;28.882;2023-05-10T03:50:02;10.40;;;6.32;;
71856;SDS011;63344;46.980;28.882;2023-05-10T03:52:29;12.93;;;6.93;;
71856;SDS011;63344;46.980;28.882;2023-05-10T03:54:56;11.93;;;6.53;;
71856;SDS011;63344;46.980;28.882;2023-05-10T03:57:23;11.00;;;5.57;;
71856;SDS011;63344;46.980;28.882;2023-05-10T03:59:51;9.40;;;4.47;;
71856;SDS011;63344;46.980;28.882;2023-05-10T04:02:18;9.95;;;5.60;;
71856;SDS011;63344;46.980;28.882;2023-05-10T04:04:46;6.43;;;4.65;;
71856;SDS011;63344;46.980;28.882;2023-05-10T04:07:14;7.78;;;5.45;;
71856;SDS011;63344;46.980;28.882;2023-05-10T04:09:42;9.90;;;5.35;;
71856;SDS011;63344;46.980;28.882;2023-05-10T04:12:09;8.30;;;5.38;;
71856;SDS011;63344;46.980;28.882;2023-05-10T04:14:37;7.03;;;3.97;;
71856;SDS011;63344;46.980;28.882;2023-05-10T04:17:04;6.43;;;5.18;;
71856;SDS011;63344;46.980;28.882;2023-05-10T04:19:35;8.27;;;5.03;;
71856;SDS011;63344;46.980;28.882;2023-05-10T04:22:03;6.45;;;4.32;;
71856;SDS011;63344;46.980;28.882;2023-05-10T04:24:32;8.07;;;4.78;;
71856;SDS011;63344;46.980;28.882;2023-05-10T04:26:59;5.72;;;5.07;;
71856;SDS011;63344;46.980;28.882;2023-05-10T04:29:28;6.93;;;5.55;;
71856;SDS011;63344;46.980;28.882;2023-05-10T04:31:55;7.40;;;5.03;;
71856;SDS011;63344;46.980;28.882;2023-05-10T04:34:30;8.75;;;5.18;;
71856;SDS011;63344;46.980;28.882;2023-05-10T04:37:01;6.18;;;5.07;;
71856;SDS011;63344;46.980;28.882;2023-05-10T04:39:33;15.38;;;7.30;;
71856;SDS011;63344;46.980;28.882;2023-05-10T04:42:00;7.32;;;4.50;;
71856;SDS011;63344;46.980;28.882;2023-05-10T04:44:29;6.20;;;3.50;;
71856;SDS011;63344;46.980;28.882;2023-05-10T04:46:57;7.75;;;6.00;;
71856;SDS011;63344;46.980;28.882;2023-05-10T04:50:03;7.43;;;5.32;;
71856;SDS011;63344;46.980;28.882;2023-05-10T04:52:49;7.75;;;4.22;;
71856;SDS011;63344;46.980;28.882;2023-05-10T04:55:48;8.63;;;5.03;;
71856;SDS011;63344;46.980;28.882;2023-05-10T04:58:44;12.75;;;4.88;;
71856;SDS011;63344;46.980;28.882;2023-05-10T05:01:40;10.30;;;3.90;;
71856;SDS011;63344;46.980;28.882;2023-05-10T05:04:35;9.45;;;5.35;;
71856;SDS011;63344;46.980;28.882;2023-05-10T05:07:32;10.35;;;5.00;;
71856;SDS011;63344;46.980;28.882;2023-05-10T05:10:30;9.85;;;5.50;;
71856;SDS011;63344;46.980;28.882;2023-05-10T05:13:25;6.90;;;4.20;;
71856;SDS011;63344;46.980;28.882;2023-05-10T05:16:24;6.10;;;4.13;;
71856;SDS011;63344;46.980;28.882;2023-05-10T05:19:14;11.70;;;5.43;;
71856;SDS011;63344;46.980;28.882;2023-05-10T05:22:01;10.23;;;5.85;;
71856;SDS011;63344;46.980;28.882;2023-05-10T05:24:47;12.75;;;5.93;;
71856;SDS011;63344;46.980;28.882;2023-05-10T05:27:42;12.20;;;6.65;;
71856;SDS011;63344;46.980;28.882;2023-05-10T05:30:20;11.27;;;6.30;;
71856;SDS011;63344;46.980;28.882;2023-05-10T05:32:53;11.57;;;6.22;;
71856;SDS011;63344;46.980;28.882;2023-05-10T05:35:50;10.57;;;4.80;;
71856;SDS011;63344;46.980;28.882;2023-05-10T05:38:26;10.23;;;4.78;;
71856;SDS011;63344;46.980;28.882;2023-05-10T05:41:07;10.82;;;5.28;;
71856;SDS011;63344;46.980;28.882;2023-05-10T05:44:06;11.48;;;8.13;;
71856;SDS011;63344;46.980;28.882;2023-05-10T05:47:06;8.25;;;4.22;;
71856;SDS011;63344;46.980;28.882;2023-05-10T05:50:02;6.53;;;2.83;;
71856;SDS011;63344;46.980;28.882;2023-05-10T05:52:45;4.32;;;2.55;;
71856;SDS011;63344;46.980;28.882;2023-05-10T05:55:15;4.38;;;2.60;;
71856;SDS011;63344;46.980;28.882;2023-05-10T05:57:56;4.30;;;2.58;;
71856;SDS011;63344;46.980;28.882;2023-05-10T06:00:35;6.72;;;2.55;;
71856;SDS011;63344;46.980;28.882;2023-05-10T06:03:14;3.83;;;2.60;;
71856;SDS011;63344;46.980;28.882;2023-05-10T06:06:37;3.25;;;2.50;;
71856;SDS011;63344;46.980;28.882;2023-05-10T06:09:33;4.13;;;2.42;;
71856;SDS011;63344;46.980;28.882;2023-05-10T06:12:17;3.15;;;2.42;;
71856;SDS011;63344;46.980;28.882;2023-05-10T06:15:06;12.75;;;3.95;;
71856;SDS011;63344;46.980;28.882;2023-05-10T06:17:51;3.83;;;2.60;;
71856;SDS011;63344;46.980;28.882;2023-05-10T06:20:44;4.60;;;2.88;;
71856;SDS011;63344;46.980;28.882;2023-05-10T06:23:25;3.65;;;1.92;;
71856;SDS011;63344;46.980;28.882;2023-05-10T06:26:07;2.35;;;1.95;;
71856;SDS011;63344;46.980;28.882;2023-05-10T06:28:49;3.50;;;2.20;;
71856;SDS011;63344;46.980;28.882;2023-05-10T06:31:31;3.60;;;2.22;;
71856;SDS011;63344;46.980;28.882;2023-05-10T06:34:00;4.72;;;2.35;;
71856;SDS011;63344;46.980;28.882;2023-05-10T06:36:38;3.42;;;1.52;;
71856;SDS011;63344;46.980;28.882;2023-05-10T06:39:05;3.88;;;2.28;;
71856;SDS011;63344;46.980;28.882;2023-05-10T06:41:51;6.32;;;2.60;;
71856;SDS011;63344;46.980;28.882;2023-05-10T06:44:26;1.45;;;1.33;;
71856;SDS011;63344;46.980;28.882;2023-05-10T06:46:55;4.22;;;1.67;;
71856;SDS011;63344;46.980;28.882;2023-05-10T06:49:41;4.85;;;2.47;;
71856;SDS011;63344;46.980;28.882;2023-05-10T06:52:22;1.92;;;1.17;;
71856;SDS011;63344;46.980;28.882;2023-05-10T06:54:56;3.75;;;2.10;;
71856;SDS011;63344;46.980;28.882;2023-05-10T06:57:43;2.80;;;1.70;;
71856;SDS011;63344;46.980;28.882;2023-05-10T07:00:39;1.23;;;0.90;;
71856;SDS011;63344;46.980;28.882;2023-05-10T07:03:23;1.35;;;0.82;;
71856;SDS011;63344;46.980;28.882;2023-05-10T07:05:53;4.05;;;2.25;;
71856;SDS011;63344;46.980;28.882;2023-05-10T07:10:58;1.95;;;1.60;;
71856;SDS011;63344;46.980;28.882;2023-05-10T07:13:33;2.88;;;2.00;;
71856;SDS011;63344;46.980;28.882;2023-05-10T07:16:01;2.85;;;1.60;;
71856;SDS011;63344;46.980;28.882;2023-05-10T07:18:30;2.85;;;1.90;;
71856;SDS011;63344;46.980;28.882;2023-05-10T07:21:05;2.50;;;1.77;;
71856;SDS011;63344;46.980;28.882;2023-05-10T07:23:34;1.52;;;1.00;;
71856;SDS011;63344;46.980;28.882;2023-05-10T07:26:01;3.33;;;1.70;;
71856;SDS011;63344;46.980;28.882;2023-05-10T07:28:31;1.42;;;1.02;;
71856;SDS011;63344;46.980;28.882;2023-05-10T07:31:07;2.17;;;1.30;;
71856;SDS011;63344;46.980;28.882;2023-05-10T07:33:37;2.85;;;1.77;;
71856;SDS011;63344;46.980;28.882;2023-05-10T07:36:07;4.22;;;1.73;;
71856;SDS011;63344;46.980;28.882;2023-05-10T07:38:35;6.93;;;1.98;;
71856;SDS011;63344;46.980;28.882;2023-05-10T07:41:06;2.22;;;1.30;;
71856;SDS011;63344;46.980;28.882;2023-05-10T07:43:34;1.17;;;1.08;;
71856;SDS011;63344;46.980;28.882;2023-05-10T07:46:04;2.47;;;1.70;;
71856;SDS011;63344;46.980;28.882;2023-05-10T07:48:33;3.95;;;1.88;;
71856;SDS011;63344;46.980;28.882;2023-05-10T07:51:01;2.15;;;1.77;;
71856;SDS011;63344;46.980;28.882;2023-05-10T07:53:33;13.73;;;1.95;;
71856;SDS011;63344;46.980;28.882;2023-05-10T07:56:19;4.13;;;1.55;;
71856;SDS011;63344;46.980;28.882;2023-05-10T07:58:57;3.55;;;2.20;;
71856;SDS011;63344;46.980;28.882;2023-05-10T08:01:29;3.45;;;1.70;;
71856;SDS011;63344;46.980;28.882;2023-05-10T08:04:00;2.25;;;1.30;;
71856;SDS011;63344;46.980;28.882;2023-05-10T08:09:00;2.92;;;1.23;;
71856;SDS011;63344;46.980;28.882;2023-05-10T08:11:28;4.65;;;2.05;;
71856;SDS011;63344;46.980;28.882;2023-05-10T08:13:56;5.03;;;2.17;;
71856;SDS011;63344;46.980;28.882;2023-05-10T08:16:27;2.63;;;1.40;;
71856;SDS011;63344;46.980;28.882;2023-05-10T08:18:58;3.88;;;2.00;;
71856;SDS011;63344;46.980;28.882;2023-05-10T08:21:26;3.42;;;1.90;;
71856;SDS011;63344;46.980;28.882;2023-05-10T08:23:54;2.25;;;2.00;;
71856;SDS011;63344;46.980;28.882;2023-05-10T08:26:21;2.88;;;1.90;;
71856;SDS011;63344;46.980;28.882;2023-05-10T08:31:17;3.67;;;3.30;;
71856;SDS011;63344;46.980;28.882;2023-05-10T08:33:47;1.75;;;1.50;;
71856;SDS011;63344;46.980;28.882;2023-05-10T08:36:14;2.97;;;2.58;;
71856;SDS011;63344;46.980;28.882;2023-05-10T08:38:57;3.13;;;2.03;;
71856;SDS011;63344;46.980;28.882;2023-05-10T08:41:30;2.85;;;2.45;;
71856;SDS011;63344;46.980;28.882;2023-05-10T08:44:04;2.25;;;1.60;;
71856;SDS011;63344;46.980;28.882;2023-05-10T08:46:34;4.75;;;2.75;;
71856;SDS011;63344;46.980;28.882;2023-05-10T08:49:16;6.72;;;3.30;;
71856;SDS011;63344;46.980;28.882;2023-05-10T08:51:51;5.82;;;4.05;;
71856;SDS011;63344;46.980;28.882;2023-05-10T08:54:22;2.78;;;2.58;;
71856;SDS011;63344;46.980;28.882;2023-05-10T08:56:55;3.17;;;2.85;;
71856;SDS011;63344;46.980;28.882;2023-05-10T08:59:25;2.80;;;2.15;;
71856;SDS011;63344;46.980;28.882;2023-05-10T09:01:52;4.03;;;3.63;;
71856;SDS011;63344;46.980;28.882;2023-05-10T09:04:23;3.10;;;2.90;;
71856;SDS011;63344;46.980;28.882;2023-05-10T09:06:53;7.32;;;3.47;;
71856;SDS011;63344;46.980;28.882;2023-05-10T09:11:51;4.55;;;3.10;;
71856;SDS011;63344;46.980;28.882;2023-05-10T09:14:20;3.63;;;3.30;;
71856;SDS011;63344;46.980;28.882;2023-05-10T09:17:06;3.67;;;3.38;;
71856;SDS011;63344;46.980;28.882;2023-05-10T09:19:34;3.30;;;3.00;;
71856;SDS011;63344;46.980;28.882;2023-05-10T09:22:16;4.30;;;3.90;;
71856;SDS011;63344;46.980;28.882;2023-05-10T09:24:44;4.20;;;3.90;;
71856;SDS011;63344;46.980;28.882;2023-05-10T09:27:13;4.38;;;3.97;;
71856;SDS011;63344;46.980;28.882;2023-05-10T09:29:42;4.05;;;3.72;;
71856;SDS011;63344;46.980;28.882;2023-05-10T09:34:54;3.17;;;2.97;;
71856;SDS011;63344;46.980;28.882;2023-05-10T09:37:35;7.72;;;4.57;;
71856;SDS011;63344;46.980;28.882;2023-05-10T09:40:07;3.72;;;3.05;;
71856;SDS011;63344;46.980;28.882;2023-05-10T09:42:38;6.55;;;3.10;;
71856;SDS011;63344;46.980;28.882;2023-05-10T09:45:20;2.42;;;2.22;;
71856;SDS011;63344;46.980;28.882;2023-05-10T09:47:51;2.50;;;2.00;;
71856;SDS011;63344;46.980;28.882;2023-05-10T09:50:19;3.22;;;2.10;;
71856;SDS011;63344;46.980;28.882;2023-05-10T09:52:53;6.07;;;2.70;;
71856;SDS011;63344;46.980;28.882;2023-05-10T09:58:13;6.28;;;2.33;;
71856;SDS011;63344;46.980;28.882;2023-05-10T10:00:54;3.10;;;2.47;;
71856;SDS011;63344;46.980;28.882;2023-05-10T10:04:04;2.20;;;1.70;;
71856;SDS011;63344;46.980;28.882;2023-05-10T10:07:22;3.17;;;2.00;;
71856;SDS011;63344;46.980;28.882;2023-05-10T10:10:22;4.00;;;1.63;;
71856;SDS011;63344;46.980;28.882;2023-05-10T10:13:22;3.83;;;2.10;;
71856;SDS011;63344;46.980;28.882;2023-05-10T10:16:21;5.40;;;2.10;;
71856;SDS011;63344;46.980;28.882;2023-05-10T10:19:21;4.20;;;2.03;;
71856;SDS011;63344;46.980;28.882;2023-05-10T10:22:17;4.32;;;2.60;;
71856;SDS011;63344;46.980;28.882;2023-05-10T10:25:20;6.93;;;2.67;;
71856;SDS011;63344;46.980;28.882;2023-05-10T10:28:21;2.50;;;2.15;;
71856;SDS011;63344;46.980;28.882;2023-05-10T10:31:13;3.72;;;2.72;;
71856;SDS011;63344;46.980;28.882;2023-05-10T10:34:06;3.22;;;2.13;;
71856;SDS011;63344;46.980;28.882;2023-05-10T10:36:42;5.72;;;2.78;;
71856;SDS011;63344;46.980;28.882;2023-05-10T10:39:48;1.48;;;1.35;;
71856;SDS011;63344;46.980;28.882;2023-05-10T10:42:43;2.83;;;1.88;;
71856;SDS011;63344;46.980;28.882;2023-05-10T10:45:41;3.28;;;1.70;;
71856;SDS011;63344;46.980;28.882;2023-05-10T10:48:24;4.35;;;2.38;;
71856;SDS011;63344;46.980;28.882;2023-05-10T10:51:31;5.63;;;2.22;;
71856;SDS011;63344;46.980;28.882;2023-05-10T10:54:27;6.50;;;2.10;;
71856;SDS011;63344;46.980;28.882;2023-05-10T10:57:25;3.47;;;1.65;;
71856;SDS011;63344;46.980;28.882;2023-05-10T11:00:38;2.42;;;2.08;;
71856;SDS011;63344;46.980;28.882;2023-05-10T11:03:56;2.20;;;2.00;;
71856;SDS011;63344;46.980;28.882;2023-05-10T11:07:18;5.97;;;2.50;;
71856;SDS011;63344;46.980;28.882;2023-05-10T11:10:29;4.35;;;2.40;;
71856;SDS011;63344;46.980;28.882;2023-05-10T11:14:07;5.32;;;2.03;;
71856;SDS011;63344;46.980;28.882;2023-05-10T11:17:49;5.25;;;2.63;;
71856;SDS011;63344;46.980;28.882;2023-05-10T11:20:57;4.10;;;2.30;;
71856;SDS011;63344;46.980;28.882;2023-05-10T11:24:01;3.60;;;2.38;;
71856;SDS011;63344;46.980;28.882;2023-05-10T11:27:02;2.55;;;2.35;;
71856;SDS011;63344;46.980;28.882;2023-05-10T11:29:58;3.25;;;2.45;;
71856;SDS011;63344;46.980;28.882;2023-05-10T11:32:56;8.25;;;2.70;;
71856;SDS011;63344;46.980;28.882;2023-05-10T11:35:53;5.72;;;3.03;;
71856;SDS011;63344;46.980;28.882;2023-05-10T11:38:49;5.13;;;2.60;;
71856;SDS011;63344;46.980;28.882;2023-05-10T11:41:46;2.70;;;2.30;;
71856;SDS011;63344;46.980;28.882;2023-05-10T11:44:45;4.55;;;2.10;;
71856;SDS011;63344;46.980;28.882;2023-05-10T11:47:14;2.80;;;1.98;;
71856;SDS011;63344;46.980;28.882;2023-05-10T11:49:43;5.18;;;2.15;;
71856;SDS011;63344;46.980;28.882;2023-05-10T11:52:11;4.88;;;1.85;;
71856;SDS011;63344;46.980;28.882;2023-05-10T11:54:52;4.97;;;2.75;;
71856;SDS011;63344;46.980;28.882;2023-05-10T11:57:25;3.97;;;2.60;;
71856;SDS011;63344;46.980;28.882;2023-05-10T11:59:56;2.22;;;1.67;;
71856;SDS011;63344;46.980;28.882;2023-05-10T12:02:24;7.05;;;2.70;;
71856;SDS011;63344;46.980;28.882;2023-05-10T12:04:52;4.72;;;2.42;;
71856;SDS011;63344;46.980;28.882;2023-05-10T12:07:19;10.88;;;2.80;;
71856;SDS011;63344;46.980;28.882;2023-05-10T12:10:06;6.78;;;1.98;;
71856;SDS011;63344;46.980;28.882;2023-05-10T12:12:38;4.00;;;1.90;;
71856;SDS011;63344;46.980;28.882;2023-05-10T12:15:17;3.10;;;2.05;;
71856;SDS011;63344;46.980;28.882;2023-05-10T12:17:49;3.17;;;1.88;;
71856;SDS011;63344;46.980;28.882;2023-05-10T12:20:33;2.15;;;1.80;;
71856;SDS011;63344;46.980;28.882;2023-05-10T12:26:46;3.35;;;2.20;;
71856;SDS011;63344;46.980;28.882;2023-05-10T12:29:49;7.18;;;2.33;;
71856;SDS011;63344;46.980;28.882;2023-05-10T12:33:01;4.00;;;2.42;;
71856;SDS011;63344;46.980;28.882;2023-05-10T12:36:35;3.33;;;2.42;;
71856;SDS011;63344;46.980;28.882;2023-05-10T12:39:09;3.78;;;1.73;;
71856;SDS011;63344;46.980;28.882;2023-05-10T12:41:36;3.92;;;2.00;;
71856;SDS011;63344;46.980;28.882;2023-05-10T12:44:06;3.83;;;2.47;;
71856;SDS011;63344;46.980;28.882;2023-05-10T12:46:34;3.28;;;1.98;;
71856;SDS011;63344;46.980;28.882;2023-05-10T12:49:03;7.22;;;1.95;;
71856;SDS011;63344;46.980;28.882;2023-05-10T12:51:35;4.10;;;2.00;;
71856;SDS011;63344;46.980;28.882;2023-05-10T12:54:09;3.13;;;1.90;;
71856;SDS011;63344;46.980;28.882;2023-05-10T12:56:38;4.60;;;1.65;;
71856;SDS011;63344;46.980;28.882;2023-05-10T12:59:08;1.92;;;1.55;;
71856;SDS011;63344;46.980;28.882;2023-05-10T13:01:36;5.63;;;2.65;;
71856;SDS011;63344;46.980;28.882;2023-05-10T13:04:09;2.92;;;1.45;;
71856;SDS011;63344;46.980;28.882;2023-05-10T13:06:40;3.58;;;1.55;;
71856;SDS011;63344;46.980;28.882;2023-05-10T13:09:12;2.00;;;1.80;;
71856;SDS011;63344;46.980;28.882;2023-05-10T13:11:41;2.38;;;2.15;;
71856;SDS011;63344;46.980;28.882;2023-05-10T13:14:12;2.80;;;2.00;;
71856;SDS011;63344;46.980;28.882;2023-05-10T13:16:40;6.60;;;2.55;;
71856;SDS011;63344;46.980;28.882;2023-05-10T13:19:30;3.03;;;1.65;;
71856;SDS011;63344;46.980;28.882;2023-05-10T13:21:57;2.90;;;1.60;;
71856;SDS011;63344;46.980;28.882;2023-05-10T13:24:25;1.95;;;1.42;;
71856;SDS011;63344;46.980;28.882;2023-05-10T13:26:54;1.63;;;1.42;;
71856;SDS011;63344;46.980;28.882;2023-05-10T13:29:24;1.55;;;1.20;;
71856;SDS011;63344;46.980;28.882;2023-05-10T13:32:00;2.67;;;1.60;;
71856;SDS011;63344;46.980;28.882;2023-05-10T13:34:44;1.92;;;1.23;;
71856;SDS011;63344;46.980;28.882;2023-05-10T13:37:26;3.20;;;1.35;;
71856;SDS011;63344;46.980;28.882;2023-05-10T13:39:53;2.00;;;1.48;;
71856;SDS011;63344;46.980;28.882;2023-05-10T13:42:22;2.78;;;1.45;;
71856;SDS011;63344;46.980;28.882;2023-05-10T13:44:50;3.22;;;1.23;;
71856;SDS011;63344;46.980;28.882;2023-05-10T13:47:17;1.65;;;1.33;;
71856;SDS011;63344;46.980;28.882;2023-05-10T13:49:45;2.05;;;1.52;;
71856;SDS011;63344;46.980;28.882;2023-05-10T13:52:12;3.15;;;1.85;;
71856;SDS011;63344;46.980;28.882;2023-05-10T13:54:40;3.83;;;2.03;;
71856;SDS011;63344;46.980;28.882;2023-05-10T13:57:08;3.40;;;1.63;;
71856;SDS011;63344;46.980;28.882;2023-05-10T13:59:35;3.00;;;1.55;;
71856;SDS011;63344;46.980;28.882;2023-05-10T14:02:03;1.75;;;1.23;;
71856;SDS011;63344;46.980;28.882;2023-05-10T14:04:30;2.17;;;1.52;;
71856;SDS011;63344;46.980;28.882;2023-05-10T14:06:59;1.95;;;1.67;;
71856;SDS011;63344;46.980;28.882;2023-05-10T14:09:26;3.17;;;2.08;;
71856;SDS011;63344;46.980;28.882;2023-05-10T14:11:58;3.88;;;1.80;;
71856;SDS011;63344;46.980;28.882;2023-05-10T14:14:26;2.75;;;1.23;;
71856;SDS011;63344;46.980;28.882;2023-05-10T14:16:56;3.85;;;1.60;;
71856;SDS011;63344;46.980;28.882;2023-05-10T14:19:23;3.50;;;1.80;;
71856;SDS011;63344;46.980;28.882;2023-05-10T14:21:54;2.28;;;1.52;;
71856;SDS011;63344;46.980;28.882;2023-05-10T14:24:21;2.03;;;1.40;;
71856;SDS011;63344;46.980;28.882;2023-05-10T14:26:49;1.80;;;1.65;;
71856;SDS011;63344;46.980;28.882;2023-05-10T14:29:34;1.52;;;1.35;;
71856;SDS011;63344;46.980;28.882;2023-05-10T14:32:04;4.13;;;2.03;;
71856;SDS011;63344;46.980;28.882;2023-05-10T14:34:32;3.58;;;1.63;;
71856;SDS011;63344;46.980;28.882;2023-05-10T14:37:02;2.67;;;1.45;;
71856;SDS011;63344;46.980;28.882;2023-05-10T14:42:20;2.42;;;1.40;;
71856;SDS011;63344;46.980;28.882;2023-05-10T14:44:52;3.10;;;1.80;;
71856;SDS011;63344;46.980;28.882;2023-05-10T14:47:29;6.82;;;1.83;;
71856;SDS011;63344;46.980;28.882;2023-05-10T14:49:57;1.63;;;1.33;;
71856;SDS011;63344;46.980;28.882;2023-05-10T14:55:30;2.65;;;1.50;;
71856;SDS011;63344;46.980;28.882;2023-05-10T14:57:58;1.35;;;1.00;;
71856;SDS011;63344;46.980;28.882;2023-05-10T15:00:32;4.72;;;1.70;;
71856;SDS011;63344;46.980;28.882;2023-05-10T15:03:14;2.92;;;1.90;;
71856;SDS011;63344;46.980;28.882;2023-05-10T15:05:42;1.60;;;1.23;;
71856;SDS011;63344;46.980;28.882;2023-05-10T15:08:12;2.28;;;1.55;;
71856;SDS011;63344;46.980;28.882;2023-05-10T15:10:42;2.22;;;1.73;;
71856;SDS011;63344;46.980;28.882;2023-05-10T15:13:12;1.67;;;1.27;;
71856;SDS011;63344;46.980;28.882;2023-05-10T15:15:39;3.47;;;1.98;;
71856;SDS011;63344;46.980;28.882;2023-05-10T15:18:22;1.73;;;0.95;;
71856;SDS011;63344;46.980;28.882;2023-05-10T15:21:22;3.25;;;2.00;;
71856;SDS011;63344;46.980;28.882;2023-05-10T15:24:14;3.03;;;1.60;;
71856;SDS011;63344;46.980;28.882;2023-05-10T15:26:55;2.05;;;1.85;;
71856;SDS011;63344;46.980;28.882;2023-05-10T15:29:26;4.07;;;1.55;;
71856;SDS011;63344;46.980;28.882;2023-05-10T15:32:27;4.63;;;1.10;;
71856;SDS011;63344;46.980;28.882;2023-05-10T15:35:26;3.20;;;1.60;;
71856;SDS011;63344;46.980;28.882;2023-05-10T15:38:12;1.50;;;1.40;;
71856;SDS011;63344;46.980;28.882;2023-05-10T15:40:41;1.92;;;1.30;;
71856;SDS011;63344;46.980;28.882;2023-05-10T15:43:50;4.35;;;1.75;;
71856;SDS011;63344;46.980;28.882;2023-05-10T15:46:50;1.92;;;1.15;;
71856;SDS011;63344;46.980;28.882;2023-05-10T15:50:07;1.35;;;1.15;;
71856;SDS011;63344;46.980;28.882;2023-05-10T15:52:48;1.50;;;1.27;;
71856;SDS011;63344;46.980;28.882;2023-05-10T15:55:25;1.58;;;1.30;;
71856;SDS011;63344;46.980;28.882;2023-05-10T15:58:23;3.83;;;1.60;;
71856;SDS011;63344;46.980;28.882;2023-05-10T16:05:27;2.80;;;1.40;;
71856;SDS011;63344;46.980;28.882;2023-05-10T16:08:45;4.95;;;2.10;;
71856;SDS011;63344;46.980;28.882;2023-05-10T16:12:00;2.90;;;1.77;;
71856;SDS011;63344;46.980;28.882;2023-05-10T16:19:16;2.63;;;1.10;;
71856;SDS011;63344;46.980;28.882;2023-05-10T16:23:27;2.33;;;1.77;;